Westmoreland, Virginia
Current Conditions -  °F | °C
As of 2:53 AM on Sunday 28 Dec 2014 (Local Time) from KNUI Reporting Station
Overcast Overcast  
Wind Chill: 51°   Ceiling: 11000
Heat Index: 51°   Visibility: 10mi
Dew Point: 37°   Wind: 10mph
Humidity: 59%   Direction: 190°S
Pressure: 30.03"   Gusts: NA
Location:  38.06°N, 76.55°W
Report Text: KNUI 280753Z AUTO 19009KT 10SM SCT085 OVC110 11/03 A3003 RMK AO2 SLP169 T01060028
Loading
Personal Weather Stations






























Interactive Weather Map New forecast layout! Learn more

10-Day Weather Forecast

Advertisements
Track Severe Weather on mobile